Other Surface Observations
Issued by NWS Los Angeles, CA

Home | Current Version | Previous Version | Text Only | Print | Product List | Glossary On
Versions: 1 2 3 4 5 6 7 8 9
000
SXUS56 KLOX 221556
OSOLOX

OFFSHORE OIL PLATFORM IRENE WEATHER
NATIONAL WEATHER SERVICE OXNARD CA
855 AM PDT FRI AUG 22 2014

OBSERVATION FROM DRILLING RIG "IRENE"
LOCATION 34 DEG 37 MIN N...120 DEG 44 MIN W...30 MILES SW
OF SANTA MARIA...ANEMOMETER LOCATED 305 FEET ABOVE SEA LEVEL.

SPECI 221435Z 35010KT 3SM BR VV001 16/15 A2997 RMKS SEAS 1 TO 2 FEET

$$





































































































































































































































USA.gov is the U.S. government's official web portal to all federal, state and local government web resources and services.